createdAt,value
2024-02-05T00:02:45.693Z,0.89
2024-02-05T00:05:47.484Z,0.89
2024-02-05T00:08:49.241Z,0.84
2024-02-05T00:11:51.042Z,0.90
2024-02-05T00:14:53.282Z,0.88
2024-02-05T00:17:55.039Z,0.88
2024-02-05T00:20:56.858Z,0.81
2024-02-05T00:23:58.793Z,0.83
2024-02-05T00:27:00.814Z,0.82
2024-02-05T00:30:02.692Z,0.87
2024-02-05T00:33:04.793Z,0.89
2024-02-05T00:36:06.900Z,0.89
2024-02-05T00:39:11.445Z,0.94
2024-02-05T00:42:14.583Z,0.85
2024-02-05T00:45:17.173Z,0.90
2024-02-05T00:48:19.016Z,0.94
2024-02-05T00:51:20.848Z,0.92
2024-02-05T00:54:22.676Z,0.87
2024-02-05T00:57:27.774Z,0.95
2024-02-05T01:00:29.655Z,0.84
2024-02-05T01:03:31.961Z,0.83
2024-02-05T01:06:33.903Z,0.87
2024-02-05T01:09:35.803Z,0.90
2024-02-05T01:12:40.570Z,0.80
2024-02-05T01:15:42.510Z,0.92
2024-02-05T01:18:44.463Z,0.87
2024-02-05T01:21:46.296Z,0.88
2024-02-05T01:24:48.145Z,0.81
2024-02-05T01:27:49.947Z,0.77
2024-02-05T01:30:51.737Z,0.90
2024-02-05T01:33:53.722Z,0.64
2024-02-05T01:36:55.532Z,0.71
2024-02-05T01:39:57.347Z,0.81
2024-02-05T01:42:59.178Z,0.86
2024-02-05T01:46:02.540Z,0.73
2024-02-05T01:49:11.997Z,0.78
2024-02-05T01:52:19.305Z,0.77
2024-02-05T01:55:24.581Z,0.79
2024-02-05T01:58:26.815Z,0.81
2024-02-05T02:01:30.631Z,0.81
2024-02-05T02:04:34.185Z,0.78
2024-02-05T02:07:36.241Z,0.88
2024-02-05T02:10:38.888Z,0.82
2024-02-05T02:13:40.753Z,0.85
2024-02-05T02:16:42.920Z,0.85
2024-02-05T02:19:50.415Z,0.87
2024-02-05T02:22:57.665Z,0.79
2024-02-05T02:26:00.950Z,0.85
2024-02-05T02:29:02.778Z,0.82
2024-02-05T02:32:31.502Z,0.92
2024-02-05T02:36:06.104Z,0.94
2024-02-05T02:39:16.970Z,1.00
2024-02-05T02:42:23.160Z,1.02
2024-02-05T02:45:25.976Z,1.01
2024-02-05T02:48:29.257Z,1.01
2024-02-05T02:51:31.198Z,0.91
2024-02-05T02:54:33.188Z,0.93
2024-02-05T02:57:35.068Z,0.87
2024-02-05T03:00:37.464Z,0.98
2024-02-05T03:03:39.459Z,0.92
2024-02-05T03:06:41.264Z,0.79
2024-02-05T03:09:43.122Z,0.78
2024-02-05T03:12:44.965Z,0.83
2024-02-05T03:15:46.847Z,0.78
2024-02-05T03:18:49.304Z,1.01
2024-02-05T03:21:51.550Z,1.04
2024-02-05T03:24:54.427Z,1.24
2024-02-05T03:27:57.852Z,1.18
2024-02-05T03:30:59.737Z,1.19
2024-02-05T03:34:01.835Z,1.56
2024-02-05T03:37:04.076Z,1.49
2024-02-05T03:40:07.036Z,1.45
2024-02-05T03:43:08.949Z,1.53
2024-02-05T03:46:11.471Z,1.59
2024-02-05T03:49:13.419Z,1.66
2024-02-05T03:52:15.427Z,1.69
2024-02-05T03:55:17.445Z,2.05
2024-02-05T03:58:19.373Z,2.12
2024-02-05T04:01:21.285Z,2.06
2024-02-05T04:04:23.144Z,2.34
2024-02-05T04:07:25.388Z,2.14
2024-02-05T04:10:30.879Z,2.17
2024-02-05T04:13:32.882Z,2.19
2024-02-05T04:16:34.685Z,2.32
2024-02-05T04:19:36.818Z,2.29
2024-02-05T04:22:41.396Z,2.29
2024-02-05T04:25:43.194Z,2.28
2024-02-05T04:28:45.061Z,2.24
2024-02-05T04:31:48.111Z,2.04
2024-02-05T04:34:50.136Z,2.22
2024-02-05T04:37:52.005Z,2.07
2024-02-05T04:40:54.019Z,2.12
2024-02-05T04:43:55.783Z,2.53
2024-02-05T04:46:58.438Z,2.55
2024-02-05T04:50:01.586Z,2.48
2024-02-05T04:53:03.493Z,2.74
2024-02-05T04:56:05.556Z,3.08
2024-02-05T04:59:07.329Z,3.85
2024-02-05T05:02:09.287Z,3.38
2024-02-05T05:05:11.409Z,2.92
2024-02-05T05:08:13.266Z,2.43
2024-02-05T05:11:24.534Z,2.12
2024-02-05T05:14:26.320Z,2.37
2024-02-05T05:17:28.116Z,2.18
2024-02-05T05:20:29.875Z,2.23
2024-02-05T05:23:31.633Z,2.35
2024-02-05T05:26:33.708Z,2.30
2024-02-05T05:29:35.488Z,2.19
2024-02-05T05:32:37.270Z,2.42
2024-02-05T05:35:39.047Z,2.28
2024-02-05T05:38:41.959Z,2.44
2024-02-05T05:41:43.836Z,2.27
2024-02-05T05:44:46.156Z,2.26
2024-02-05T05:47:49.435Z,2.27
2024-02-05T05:50:52.118Z,2.09
2024-02-05T05:53:53.885Z,2.26
2024-02-05T05:56:56.133Z,2.07
2024-02-05T05:59:58.248Z,2.13
2024-02-05T06:03:00.260Z,2.07
2024-02-05T06:06:03.328Z,2.01
2024-02-05T06:09:06.433Z,2.05
2024-02-05T06:12:08.518Z,2.02
2024-02-05T06:15:11.231Z,1.99
2024-02-05T06:18:14.891Z,2.08
2024-02-05T06:21:16.984Z,1.81
2024-02-05T06:24:19.522Z,1.91
2024-02-05T06:27:23.378Z,1.89
2024-02-05T06:30:25.391Z,1.72
2024-02-05T06:33:27.336Z,1.68
2024-02-05T06:36:29.204Z,1.69
2024-02-05T06:39:30.945Z,1.42
2024-02-05T06:42:32.904Z,1.43
2024-02-05T06:45:38.701Z,1.50
2024-02-05T06:48:41.085Z,1.26
2024-02-05T06:51:43.180Z,1.29
2024-02-05T06:54:45.205Z,1.30
2024-02-05T06:57:47.019Z,1.23
2024-02-05T07:00:48.982Z,1.10
2024-02-05T07:03:50.843Z,0.99
2024-02-05T07:06:52.779Z,1.08
2024-02-05T07:09:54.713Z,1.15
2024-02-05T07:12:56.572Z,1.13
2024-02-05T07:15:58.471Z,1.04
2024-02-05T07:19:00.335Z,1.00
2024-02-05T07:22:02.239Z,0.94
2024-02-05T07:25:04.388Z,0.81
2024-02-05T07:28:07.352Z,1.00
2024-02-05T07:31:10.719Z,1.01
2024-02-05T07:34:12.694Z,1.11
2024-02-05T07:37:14.967Z,1.15
2024-02-05T07:40:17.184Z,1.14
2024-02-05T07:43:19.195Z,1.11
2024-02-05T07:46:21.649Z,1.08
2024-02-05T07:49:24.059Z,0.96
2024-02-05T07:52:27.297Z,0.95
2024-02-05T07:55:29.144Z,1.00
2024-02-05T07:58:31.093Z,1.00
2024-02-05T08:01:33.134Z,1.06
2024-02-05T08:04:35.025Z,1.22
2024-02-05T08:07:37.221Z,0.98
2024-02-05T08:10:39.299Z,1.05
2024-02-05T08:13:41.249Z,0.85
2024-02-05T08:16:43.040Z,0.92
2024-02-05T08:19:44.951Z,0.85
2024-02-05T08:22:47.149Z,0.95
2024-02-05T08:25:48.951Z,0.91
2024-02-05T08:28:50.811Z,0.93
2024-02-05T08:31:53.228Z,0.85
2024-02-05T08:34:56.998Z,0.84
2024-02-05T08:37:58.822Z,0.85
2024-02-05T08:41:00.702Z,0.99
2024-02-05T08:44:03.030Z,0.83
2024-02-05T08:47:05.104Z,0.89
2024-02-05T08:50:08.124Z,0.86
2024-02-05T08:53:10.574Z,0.93
2024-02-05T08:56:12.377Z,0.81
2024-02-05T08:59:14.140Z,0.84
2024-02-05T09:02:16.847Z,0.88
2024-02-05T09:05:21.582Z,0.80
2024-02-05T09:08:27.140Z,0.88
2024-02-05T09:11:34.787Z,0.80
2024-02-05T09:14:38.572Z,0.78
2024-02-05T09:17:40.349Z,0.79
2024-02-05T09:20:45.994Z,0.76
2024-02-05T09:23:47.884Z,0.76
2024-02-05T09:26:49.685Z,0.69
2024-02-05T09:29:51.593Z,0.73
2024-02-05T09:32:53.414Z,0.78
2024-02-05T09:35:55.270Z,0.83
2024-02-05T09:38:57.048Z,0.74
2024-02-05T09:42:02.617Z,0.71
2024-02-05T09:45:11.781Z,0.70
2024-02-05T09:48:27.413Z,0.70
2024-02-05T09:51:38.639Z,0.75
2024-02-05T09:54:42.654Z,0.60
2024-02-05T09:57:45.221Z,0.62
2024-02-05T10:00:47.252Z,0.65
2024-02-05T10:03:50.349Z,0.52
2024-02-05T10:06:54.400Z,0.58
2024-02-05T10:09:57.389Z,0.53
2024-02-05T10:13:00.336Z,0.53
2024-02-05T10:16:02.218Z,0.49
2024-02-05T10:19:06.517Z,0.51
2024-02-05T10:22:09.808Z,0.54
2024-02-05T10:25:13.862Z,0.54
2024-02-05T10:28:21.882Z,0.50
2024-02-05T10:31:23.865Z,0.49
2024-02-05T10:34:26.364Z,0.57
2024-02-05T10:37:28.335Z,0.45
2024-02-05T10:40:35.955Z,0.56
2024-02-05T10:43:44.429Z,0.51
2024-02-05T10:46:47.050Z,0.40
2024-02-05T10:49:49.299Z,0.54
2024-02-05T10:52:51.533Z,0.55
2024-02-05T10:55:58.880Z,0.46
2024-02-05T10:59:04.717Z,0.50
2024-02-05T11:02:22.750Z,0.51
2024-02-05T11:05:26.559Z,0.51
2024-02-05T11:08:34.696Z,0.47
2024-02-05T11:11:41.648Z,0.40
2024-02-05T11:14:48.757Z,0.46
2024-02-05T11:17:53.483Z,0.50
2024-02-05T11:20:58.766Z,0.49
2024-02-05T11:24:01.559Z,0.44
2024-02-05T11:27:05.786Z,0.48
2024-02-05T11:30:10.882Z,0.36
2024-02-05T11:33:13.872Z,0.48
2024-02-05T11:36:15.875Z,0.42
2024-02-05T11:39:18.517Z,0.33
2024-02-05T11:42:20.600Z,0.36
2024-02-05T11:45:22.454Z,0.57
2024-02-05T11:48:26.047Z,0.62
2024-02-05T11:51:30.935Z,0.47
2024-02-05T11:54:34.334Z,0.41
2024-02-05T11:57:36.129Z,0.42
2024-02-05T12:00:38.088Z,0.48
2024-02-05T12:03:40.020Z,0.48
2024-02-05T12:06:44.638Z,0.47
2024-02-05T12:09:47.636Z,0.40
2024-02-05T12:12:49.615Z,0.47
2024-02-05T12:15:51.644Z,0.56
2024-02-05T12:19:08.363Z,0.48
2024-02-05T12:22:16.212Z,0.43
2024-02-05T12:25:31.034Z,0.43
2024-02-05T12:28:41.084Z,0.43
2024-02-05T12:31:42.891Z,0.49
2024-02-05T12:34:47.538Z,0.44
2024-02-05T12:37:51.599Z,0.54
2024-02-05T12:40:54.200Z,0.50
2024-02-05T12:43:56.185Z,0.53
2024-02-05T12:46:58.379Z,0.49
2024-02-05T12:50:00.898Z,0.53
2024-02-05T12:53:02.797Z,0.51
2024-02-05T12:56:05.506Z,0.49
2024-02-05T12:59:07.394Z,0.66
2024-02-05T13:02:09.299Z,0.72
2024-02-05T13:05:11.690Z,0.56
2024-02-05T13:08:14.921Z,0.67
2024-02-05T13:11:16.905Z,0.67
2024-02-05T13:14:18.856Z,0.56
2024-02-05T13:17:20.736Z,0.66
2024-02-05T13:20:22.516Z,0.57
2024-02-05T13:23:24.357Z,0.67
2024-02-05T13:26:26.783Z,0.63
2024-02-05T13:29:28.609Z,0.69
2024-02-05T13:32:30.423Z,0.78
2024-02-05T13:35:32.223Z,0.69
2024-02-05T13:38:34.851Z,0.74
2024-02-05T13:41:39.673Z,0.69
2024-02-05T13:44:41.429Z,0.63
2024-02-05T13:47:45.131Z,0.74
2024-02-05T13:50:46.888Z,0.68
2024-02-05T13:53:48.641Z,0.69
2024-02-05T13:56:50.618Z,0.71
2024-02-05T13:59:52.403Z,0.79
2024-02-05T14:02:54.219Z,0.66
2024-02-05T14:05:55.998Z,0.71
2024-02-05T14:08:58.146Z,0.76
2024-02-05T14:11:59.965Z,0.76
2024-02-05T14:15:01.864Z,0.84
2024-02-05T14:18:03.845Z,0.90
2024-02-05T14:21:06.193Z,0.82
2024-02-05T14:24:08.854Z,0.83
2024-02-05T14:27:10.683Z,0.82
2024-02-05T14:30:12.717Z,0.88
2024-02-05T14:33:14.555Z,0.90
2024-02-05T14:36:16.417Z,0.87
2024-02-05T14:39:19.255Z,0.91
2024-02-05T14:42:21.056Z,0.83
2024-02-05T14:45:22.887Z,0.94
2024-02-05T14:48:24.753Z,0.91
2024-02-05T14:51:27.850Z,1.06
2024-02-05T14:54:29.613Z,1.03
2024-02-05T14:57:32.837Z,1.08
2024-02-05T15:00:34.709Z,1.21
2024-02-05T15:03:36.526Z,1.12
2024-02-05T15:06:38.338Z,1.43
2024-02-05T15:09:41.479Z,1.39
2024-02-05T15:12:45.000Z,1.01
2024-02-05T15:15:46.803Z,1.33
2024-02-05T15:18:49.599Z,1.32
2024-02-05T15:21:52.710Z,1.35
2024-02-05T15:24:54.582Z,1.27
2024-02-05T15:27:56.367Z,1.33
2024-02-05T15:30:58.199Z,1.37
2024-02-05T15:34:00.491Z,1.29
2024-02-05T15:37:02.557Z,1.37
2024-02-05T15:40:06.093Z,1.40
2024-02-05T15:43:08.218Z,1.34
2024-02-05T15:46:10.265Z,1.41
2024-02-05T15:49:14.055Z,1.24
2024-02-05T15:52:16.064Z,1.37
2024-02-05T15:55:18.570Z,1.46
2024-02-05T15:58:21.036Z,1.40
2024-02-05T16:01:22.942Z,1.48
2024-02-05T16:04:28.069Z,1.45
2024-02-05T16:07:31.502Z,1.53
2024-02-05T16:10:36.177Z,1.67
2024-02-05T16:13:38.535Z,7.02
2024-02-05T16:16:42.284Z,6.63
2024-02-05T16:19:44.479Z,4.27
2024-02-05T16:22:49.550Z,2.64
2024-02-05T16:25:51.431Z,2.41
2024-02-05T16:28:53.263Z,2.09
2024-02-05T16:31:55.091Z,1.82
2024-02-05T16:34:56.915Z,1.78
2024-02-05T16:37:58.944Z,1.86
2024-02-05T16:41:00.820Z,2.00
2024-02-05T16:44:02.604Z,2.22
2024-02-05T16:47:04.771Z,2.35
2024-02-05T16:50:07.545Z,2.29
2024-02-05T16:53:09.395Z,2.59
2024-02-05T16:56:12.187Z,2.82
2024-02-05T16:59:14.179Z,2.44
2024-02-05T17:02:17.382Z,2.33
2024-02-05T17:05:20.222Z,2.25
2024-02-05T17:08:23.325Z,2.40
2024-02-05T17:11:25.115Z,2.49
2024-02-05T17:14:26.963Z,2.67
2024-02-05T17:17:28.782Z,2.41
2024-02-05T17:20:30.871Z,3.13
2024-02-05T17:23:33.110Z,3.98
2024-02-05T17:26:35.056Z,4.27
2024-02-05T17:29:36.846Z,4.15
2024-02-05T17:32:38.647Z,4.99
2024-02-05T17:35:40.951Z,3.94
2024-02-05T17:38:42.737Z,3.59
2024-02-05T17:41:44.533Z,3.98
2024-02-05T17:44:46.830Z,3.80
2024-02-05T17:47:48.661Z,3.03
2024-02-05T17:50:50.642Z,2.78
2024-02-05T17:53:52.582Z,2.36
2024-02-05T17:56:55.210Z,2.37
2024-02-05T17:59:56.984Z,2.15
2024-02-05T18:02:58.776Z,2.10
2024-02-05T18:06:00.650Z,2.06
2024-02-05T18:09:02.414Z,2.37
2024-02-05T18:12:06.741Z,2.08
2024-02-05T18:15:11.853Z,2.10
2024-02-05T18:18:14.756Z,2.15
2024-02-05T18:21:17.128Z,2.12
2024-02-05T18:24:21.697Z,2.24
2024-02-05T18:27:24.223Z,2.05
2024-02-05T18:30:26.023Z,1.98
2024-02-05T18:33:27.857Z,2.23
2024-02-05T18:36:29.743Z,2.07
2024-02-05T18:39:33.527Z,2.18
2024-02-05T18:42:35.360Z,2.36
2024-02-05T18:45:37.174Z,2.30
2024-02-05T18:48:39.931Z,3.97
2024-02-05T18:51:41.766Z,5.22
2024-02-05T18:54:44.815Z,6.05
2024-02-05T18:57:47.053Z,8.72
2024-02-05T19:00:49.037Z,6.25
2024-02-05T19:03:51.273Z,3.63
2024-02-05T19:06:53.179Z,3.04
2024-02-05T19:09:55.156Z,2.81
2024-02-05T19:12:57.892Z,2.58
2024-02-05T19:16:00.022Z,2.72
2024-02-05T19:19:01.996Z,3.07
2024-02-05T19:22:04.169Z,2.90
2024-02-05T19:25:06.849Z,2.79
2024-02-05T19:28:09.060Z,2.80
2024-02-05T19:31:10.917Z,2.89
2024-02-05T19:34:14.589Z,3.33
2024-02-05T19:37:16.730Z,3.75
2024-02-05T19:40:19.090Z,3.98
2024-02-05T19:43:21.042Z,4.05
2024-02-05T19:46:23.035Z,3.74
2024-02-05T19:49:25.078Z,3.95
2024-02-05T19:52:26.963Z,4.49
2024-02-05T19:55:31.890Z,4.43
2024-02-05T19:58:33.803Z,4.40
2024-02-05T20:01:36.010Z,4.24
2024-02-05T20:04:37.982Z,4.27
2024-02-05T20:07:39.988Z,5.01
2024-02-05T20:10:42.013Z,5.97
2024-02-05T20:13:43.838Z,4.81
2024-02-05T20:16:45.704Z,4.56
2024-02-05T20:19:53.687Z,4.09
2024-02-05T20:22:56.508Z,3.83
2024-02-05T20:25:58.243Z,3.85
2024-02-05T20:29:00.037Z,3.69
2024-02-05T20:32:01.873Z,3.55
2024-02-05T20:35:04.408Z,3.46
2024-02-05T20:38:06.336Z,3.38
2024-02-05T20:41:08.133Z,3.48
2024-02-05T20:44:13.222Z,3.70
2024-02-05T20:47:15.012Z,3.45
2024-02-05T20:50:17.313Z,3.65
2024-02-05T20:53:21.689Z,3.43
2024-02-05T20:56:27.938Z,3.62
2024-02-05T20:59:29.745Z,3.99
2024-02-05T21:02:32.890Z,4.15
2024-02-05T21:05:35.398Z,4.30
2024-02-05T21:08:37.264Z,4.57
2024-02-05T21:11:39.187Z,4.56
2024-02-05T21:14:41.129Z,5.04
2024-02-05T21:17:43.093Z,4.75
2024-02-05T21:20:45.035Z,5.27
2024-02-05T21:23:46.821Z,5.40
2024-02-05T21:26:48.602Z,5.23
2024-02-05T21:29:50.438Z,5.00
2024-02-05T21:32:53.520Z,4.47
2024-02-05T21:35:55.290Z,4.42
2024-02-05T21:38:57.817Z,4.40
2024-02-05T21:41:59.981Z,4.44
2024-02-05T21:45:02.602Z,4.77
2024-02-05T21:48:05.236Z,4.71
2024-02-05T21:51:08.069Z,4.70
2024-02-05T21:54:09.861Z,4.45
2024-02-05T21:57:11.726Z,4.15
2024-02-05T22:00:13.736Z,4.40
2024-02-05T22:03:15.581Z,4.20
2024-02-05T22:06:17.425Z,4.31
2024-02-05T22:09:19.248Z,4.44
2024-02-05T22:12:21.714Z,4.50
2024-02-05T22:15:23.472Z,4.32
2024-02-05T22:18:25.469Z,3.98
2024-02-05T22:21:27.319Z,3.81
2024-02-05T22:24:29.199Z,3.77
2024-02-05T22:27:31.023Z,3.95
2024-02-05T22:30:34.992Z,3.86
2024-02-05T22:33:37.624Z,3.93
2024-02-05T22:36:39.583Z,4.12
2024-02-05T22:39:41.757Z,4.03
2024-02-05T22:42:43.799Z,4.02
2024-02-05T22:45:45.833Z,4.41
2024-02-05T22:48:47.705Z,4.54
2024-02-05T22:51:49.530Z,4.64
2024-02-05T22:54:51.693Z,4.87
2024-02-05T22:57:53.606Z,5.18
2024-02-05T23:00:58.575Z,5.36
2024-02-05T23:04:01.728Z,5.43
2024-02-05T23:07:04.512Z,5.64
2024-02-05T23:10:08.878Z,5.24
2024-02-05T23:13:10.847Z,5.80
2024-02-05T23:16:12.763Z,5.80
2024-02-05T23:19:15.108Z,5.40
2024-02-05T23:22:18.034Z,6.22
2024-02-05T23:25:20.521Z,8.65
2024-02-05T23:28:22.331Z,8.45
2024-02-05T23:31:24.248Z,8.68
2024-02-05T23:34:26.159Z,8.89
2024-02-05T23:37:34.404Z,8.52
2024-02-05T23:40:36.430Z,8.12
2024-02-05T23:43:38.288Z,8.61
2024-02-05T23:46:40.178Z,7.79
2024-02-05T23:49:42.206Z,8.21
2024-02-05T23:52:44.115Z,8.76
2024-02-05T23:55:46.106Z,7.35
2024-02-05T23:58:48.148Z,6.62
